EN448: June 27 - July 3, 2008                                        
Station Year Month Day Local Decimal Decimal Bottom  Sampling Chlorophyll a Phaeo-pigments Salinity Sigma theta Pressure Temperature Conductivity Fluor Transmittance PAR Oxygen NO3+NO2 Si(OH)4 NH4 PO4
      Time Latitude Longitude Depth(m) Depth(m) (ug/L) (ug/L) Sal00 Sigma-00 (db) T090 C0S/m Upoly0 Xmiss Par Sbeox1ML/L (uM) (uM) (uM) (uM)
                                             
1 2008 6 27 1420 41.16 -70.46 36 20 2.23 0.29 31.9022 24.4083 20.201 10.7483 3.570982 1.0815 81.2928 1.39E+01 2.6628 0.82 5.72 2.48 0.44
1 2008 6 27 1420 41.16 -70.46 36 10 2.01 0.00 31.6036 23.7259 10.508 13.1923 3.755531 1.0615 80.7429 7.64E+01 3.0186 0.76 2.53 1.24 0.47
1 2008 6 27 1420 41.16 -70.46 36 1 0.96 0.09 31.5934 23.1813 2.825 15.7642 3.984622 0.7089 81.0593 3.15E+02 2.9776 0.28 2.29 0.07 0.17
2 2008 6 27 1612 40.99 -70.47 43 30 0.92 0.73 32.3243 25.038 29.547 8.909 3.451593 0.9781 86.3188 2.57E+00 2.6975 0.03 1.58 0.74 0.25
2 2008 6 27 1612 40.99 -70.47 43 20 1.74 0.00 32.2044 24.8006 20.009 9.8143 3.518954 1.6197 84.0872 1.32E+01 3.0076 0.03 1.78 0.47 0.16
2 2008 6 27 1612 40.99 -70.47 43 10 0.71 0.54 31.8849 24.1384 9.775 12.1752 3.694834 0.8678 83.3165 6.81E+01 3.0577 0.04 1.49 0.62 0.19
2 2008 6 27 1612 40.99 -70.47 43 1 0.63 0.24 31.8261 22.895 2.039 17.7837 4.195989 0.6479 82.1685 3.58E+02 2.9127 0.03 1.25 1.05 0.02
3 2008 6 27 1733 40.82 -70.47 54 40 0.43 0.30 32.5901 25.4257 39.69 7.6952 3.371101 0.1981 82.8857 1.45E+00 2.4004 1.40 9.50 1.82 0.31
3 2008 6 27 1733 40.82 -70.47 54 30 0.86 0.51 32.3418 25.0647 30.24 8.8244 3.445899 0.8765 86.7466 4.25E+00 2.6771 0.54 3.12 1.04 0.03
3 2008 6 27 1733 40.82 -70.47 54 20 1.73 0.02 32.2315 24.876 19.869 9.4785 3.492109 1.7947 84.4909 1.80E+01 2.9632 0.03 1.27 0.92 0.10
3 2008 6 27 1733 40.82 -70.47 54 10 1.22 0.00 32.1176 24.4969 9.909 11.1987 3.632114 0.8223 84.1441 7.75E+01 3.2005 0.04 0.75 0.85 0.05
3 2008 6 27 1733 40.82 -70.47 54 1 1.00 0.00 31.9353 22.6559 1.625 19.0982 4.331008 0.6429 82.5183 4.86E+02 2.8522 0.03 1.12 0.94 0.08
4 2008 6 27 1851 40.65 -70.47 58 40 0.58 0.18 32.3751 25.1736 39.399 8.2735 3.401336 0.2878 87.8244 3.89E-01 2.6129 0.60 3.31 1.76 0.35
4 2008 6 27 1851 40.65 -70.47 58 30 1.22 0.00 32.2008 24.9572 30.375 8.8054 3.430712 0.7911 87.0459 1.19E+00 2.6793 0.36 2.74 1.51 0.46
4 2008 6 27 1851 40.65 -70.47 58 20 2.41 0.00 32.0883 24.8259 20.048 9.0859 3.443876 2.0925 83.0653 7.19E+00 2.7392 0.03 1.76 0.86 0.21
4 2008 6 27 1851 40.65 -70.47 58 10 0.82 0.16 32.0832 24.4174 9.995 11.4934 3.654765 0.7388 83.3856 3.18E+01 3.1842 0.03 0.84 0.03 0.00
4 2008 6 27 1851 40.65 -70.47 58 1 0.46 0.15 32.2489 23.1326 1.662 18.1389 4.279053 0.3688 84.2716 1.35E+02 2.9997 0.34 0.70 0.03 0.03
5 2008 6 27 2011 40.48 -70.47 69 50     32.8036 25.6621 50.513 7.2025 3.348331 0.0878 84.593 1.00E-03 2.3917 1.24 8.22 2.08 0.23
5 2008 6 27 2011 40.48 -70.47 69 40 0.24 0.27 32.7177 25.581 40.214 7.3001 3.348478 0.1626 85.9857 8.40E-03 2.486 1.91 8.94 1.90 0.27
5 2008 6 27 2011 40.48 -70.47 69 30 1.50 0.11 32.6952 25.4256 30.721 8.2661 3.430589 2.2514 84.0538 4.04E-02 3.0188 0.11 1.95 0.00 0.08
5 2008 6 27 2011 40.48 -70.47 69 20 1.68 0.00 32.9024 25.0217 19.735 11.671 3.755095 1.9069 79.7048 1.65E-01 3.4051 0.05 1.63 0.00 0.03
5 2008 6 27 2011 40.48 -70.47 69 10 1.25 0.00 32.7935 24.0521 10.032 15.9966 4.14212 0.8659 81.8894 4.89E-01 3.2078 0.03 1.03 0.00 0.11
5 2008 6 27 2011 40.48 -70.47 69 1 1.21 0.00 32.8434 23.5287 1.926 18.3777 4.372304 0.4785 83.3999 1.74E+00 3.0364 0.12 0.93 0.58 0.03
6 2008 6 27 2130 40.32 -70.47 95 85     33.7911 26.2953 85.067 8.2046 3.530784 -0.0062 87.3407 8.57E-04 2.3934 6.98 7.00 2.69 0.28
6 2008 6 27 2130 40.32 -70.47 95 50     33.176 25.8495 50.898 7.95 3.448751 0.2473 87.9785 1.00E-12 2.6359 1.50 1.60 0.68 0.12
6 2008 6 27 2130 40.32 -70.47 95 40 1.38 0.00 32.9612 25.6111 39.887 8.4218 3.469928 1.8066 83.6226 1.00E-12 2.8194 0.85 1.42 0.03 0.14
6 2008 6 27 2130 40.32 -70.47 95 30 3.10 0.01 32.826 25.4545 30.281 8.755 3.486175 2.9815 80.2601 1.00E-12 3.1186 0.03 1.17 0.00 0.03
6 2008 6 27 2130 40.32 -70.47 95 20 3.16 0.01 32.8363 25.0533 19.833 11.214 3.706912 2.3778 78.5191 2.22E-04 3.4611 0.04 1.53 0.03 0.03
6 2008 6 27 2130 40.32 -70.47 95 10 0.85 0.17 32.9787 24.2017 9.694 15.9642 4.16 1.0534 80.6516 5.80E-02 3.3271 0.43 2.97 0.00 0.03
6 2008 6 27 2130 40.32 -70.47 95 1 0.76 0.00 32.8685 23.7036 2.404 17.7386 4.314575 0.5065 83.3876 1.28E+00 3.0983 0.03 1.98 0.00 0.03
7 2008 6 27 2247 40.15 -70.47 120 110     34.6596 26.5402 109.901 10.8481 3.860549 -0.0062 89.0401 1.00E-12 2.2967 8.44 5.83 0.00 0.10
7 2008 6 27 2247 40.15 -70.47 120 100     34.6061 26.484 99.8 10.9272 3.862223 -0.0211 88.6579 3.14E-04 2.3331 8.80 5.82 0.00 0.06
7 2008 6 27 2247 40.15 -70.47 120 50     33.7405 26.1336 50.354 8.9949 3.596124 0.0405 89.4954 1.00E-12 2.5415 6.36 4.40 0.76 0.11
7 2008 6 27 2247 40.15 -70.47 120 40 0.22 0.14 33.3282 26.0049 39.347 7.7004 3.440256 0.1763 89.1127 1.00E-12 2.5825 5.31 3.74 0.03 0.09
7 2008 6 27 2247 40.15 -70.47 120 30 1.58 0.00 33.089 25.7582 29.671 8.1057 3.453489 1.7293 84.4433 1.00E-12 2.7513 2.73 2.22 0.00 0.00
7 2008 6 27 2247 40.15 -70.47 120 20 1.50 0.00 33.1619 25.1919 19.698 11.8408 3.797246 0.8329 82.8097 5.28E-03 3.3162 0.38 1.05 0.03 0.03
7 2008 6 27 2247 40.15 -70.47 120 10 0.59 0.00 33.405 23.9411 10.554 18.448 4.446266 0.4174 84.3805 3.95E-02 3.0702 0.42 0.88 0.03 0.03
7 2008 6 27 2247 40.15 -70.47 120 1 0.55 0.00 33.148 23.389 2.749 19.8493 4.550443 0.3458 84.9261 6.90E-01 2.9745 1.12 1.72 0.41 0.03
8 2008 6 28 0324 40.14 -69.52 90 77     33.1954 26.0267 78.59 6.7875 3.349003 0.0075 88.5441 1.00E-12 2.515 6.83 6.43 0.64 0.09
8 2008 6 28 0324 40.14 -69.52 90 50     32.9988 25.8827 51.043 6.7024 3.322477 0.0685 89.1735 1.00E-12 2.5765 4.14 3.62 0.07 0.08
8 2008 6 28 0324 40.14 -69.52 90 40 0.47 0.00 32.8925 25.8249 40.499 6.5011 3.294819 0.1203 88.9332 2.02E-03 2.6076 3.72 3.58 1.57 0.16
8 2008 6 28 0324 40.14 -69.52 90 30 1.18 0.00 32.8407 25.6455 30.729 7.5318 3.379718 0.8541 86.1398 1.00E-12 2.7257 2.48 2.29 0.94 0.05
8 2008 6 28 0324 40.14 -69.52 90 20 3.08 0.01 32.7647 25.4469 20.528 8.4872 3.456209 3.4693 79.2373 1.00E-12 2.9948 0.03 3.37 0.17 0.05
8 2008 6 28 0324 40.14 -69.52 90 10 2.57 0.10 32.7138 24.7795 10.186 12.1849 3.781936 2.9759 71.409 2.64E-02 3.4866 0.26 1.73 0.49 0.03
8 2008 6 28 0324 40.14 -69.52 90 1 0.77 0.09 32.6353 23.3641 1.49 18.4003 4.349641 0.7214 80.2577 2.01E+00 3.1473 0.16 3.58 0.44 0.03
9 2008 6 28 0441 40.27 -69.58 79 65     33.0545 25.9408 65.01 6.5945 3.318701 0.0299 86.7255 3.28E-03 2.5101 4.57 7.34 0.93 0.19
9 2008 6 28 0441 40.27 -69.58 79 50     32.932 25.8473 50.583 6.5699 3.304837 0.0872 88.055 1.00E-12 2.5428 5.08 5.94 0.05 0.24
9 2008 6 28 0441 40.27 -69.58 79 40 1.25 0.00 32.7809 25.6698 39.47 7.0125 3.329176 0.2268 88.3047 1.00E-12 2.6212 2.24 3.13 0.35 0.09
9 2008 6 28 0441 40.27 -69.58 79 30 0.78 0.20 32.7376 25.5315 30.033 7.7661 3.390647 1.3313 85.4942 1.00E-12 2.7198 0.45 1.97 0.00 0.21
9 2008 6 28 0441 40.27 -69.58 79 20 2.08 0.33 32.6521 25.3943 20.298 8.2484 3.424515 1.9249 81.673 6.53E-03 2.7256 0.59 3.96 0.50 0.19
9 2008 6 28 0441 40.27 -69.58 79 10 4.85 0.01 32.5524 24.9261 9.608 10.6801 3.629833 1.6066 71.4424 7.58E-02 3.2164 0.67 1.08 0.94 0.03
9 2008 6 28 0441 40.27 -69.58 79 1 1.86 0.00 32.3916 24.4027 1.489 12.8475 3.807909 0.8995 76.7014 2.15E+00 3.2001 0.35 2.58 0.52 0.01
10 2008 6 28 0540 40.38 -69.63 70 60     32.7214 25.55 59.854 7.5473 3.371277 0.3956 86.6289 1.00E-12 2.5888 0.30 1.24 0.00 0.03
10 2008 6 28 0540 40.38 -69.63 70 50     32.7086 25.5227 50.524 7.6689 3.38032 0.456 86.6922 1.31E-02 2.5878 0.68 4.76 1.08 0.04
10 2008 6 28 0540 40.38 -69.63 70 40 0.88 0.74 32.6391 25.4 39.06 8.1417 3.41473 0.5308 85.973 7.82E-02 2.6271 0.65 4.94 0.36 0.16
10 2008 6 28 0540 40.38 -69.63 70 30 2.63 0.00 32.3815 25.0403 30.525 9.1821 3.481106 0.8254 84.0342 3.06E-01 2.7971 0.61 2.94 0.03 0.23
10 2008 6 28 0540 40.38 -69.63 70 20 2.73 0.00 32.2278 24.8515 19.634 9.6132 3.503567 1.0765 82.9485 1.65E+00 2.8765 0.37 2.05 0.48 0.04
10 2008 6 28 0540 40.38 -69.63 70 10 3.11 0.00 32.169 24.7607 10.195 9.888 3.521532 1.3014 81.9183 1.06E+01 2.9284 0.03 3.84 0.40 0.03
10 2008 6 28 0540 40.38 -69.63 70 1 2.05 0.00 32.1592 24.6245 2.194 10.6529 3.587657 0.9257 82.0056 7.97E+01 3.0286 0.04 1.54 0.03 0.03
11 2008 6 28 0700 40.55 -69.71 66 50     32.803 25.6916 49.816 6.9804 3.328855 0.256 85.4073 5.23E-02 2.5616 2.20 8.43 0.60 0.17
11 2008 6 28 0700 40.55 -69.71 66 40 0.74 0.23 32.7306 25.5778 40.138 7.3977 3.358198 0.4909 86.128 1.61E-01 2.664 1.29 3.98 0.24 0.14
11 2008 6 28 0700 40.55 -69.71 66 30 1.17 0.34 32.6819 25.4748 29.883 7.8562 3.393329 0.7127 85.867 4.74E-01 2.8505 0.77 2.47 0.00 0.07
11 2008 6 28 0700 40.55 -69.71 66 20 4.39 0.00 32.5657 25.2862 19.545 8.5194 3.440095 3.0924 80.7178 2.57E+00 2.7517 0.35 2.87 0.03 0.02
11 2008 6 28 0700 40.55 -69.71 66 10 3.29 0.17 32.6462 24.8548 10.156 11.4941 3.712446 1.4851 78.2512 2.33E+01 3.5816 0.03 1.76 0.14 0.03
11 2008 6 28 0700 40.55 -69.71 66 1 1.71 0.00 32.1126 23.6424 2.2 15.4826 4.017486 0.9182 80.1081 1.18E+02 3.1307 0.14 0.75 0.79 0.03
12 2008 6 28 1408 40.71 -69.79 49 30 3.68 0.00 32.2285 24.7834 29.746 10.034 3.541093 1.5493 82.3083 2.79E+00 2.8881 0.60 2.93 0.42 0.03
12 2008 6 28 1408 40.71 -69.79 49 20 3.01 0.30 32.2234 24.7744 19.803 10.0632 3.542731 1.3848 82.5173 1.32E+01 2.8914 0.03 2.98 0.00 0.03
12 2008 6 28 1408 40.71 -69.79 49 10 3.07 0.29 32.2177 24.7631 10.433 10.1036 3.545335 1.7063 82.5095 7.11E+01 2.9027 0.51 2.44 0.22 0.03
12 2008 6 28 1408 40.71 -69.79 49 1 3.00 0.01 32.1781 24.3585 2.274 12.2129 3.728424 1.0061 80.8542 5.69E+02 3.0424 0.02 2.06 0.03 0.03
13 2008 6 28 1613 40.79 -69.23 56 40 0.89 0.56 32.6339 25.2445 39.44 9.1399 3.502182 0.5513 83.9738 1.34E+00 2.7806 0.12 1.19 0.70 0.03
13 2008 6 28 1600 40.79 -69.23 56 30 0.92 0.55 32.6333 25.2435 29.484 9.1419 3.501868 0.5407 84.2407 5.33E+00 2.7863 0.26 1.16 0.10 0.03
13 2008 6 28 1600 40.79 -69.23 56 20 2.29 0.00 32.5557 25.1602 19.88 9.2845 3.506553 0.7382 83.9581 1.89E+01 2.8219 0.48 1.25 0.22 0.03
13 2008 6 28 1600 40.79 -69.23 56 10 1.92 0.02 32.4345 25.0163 9.96 9.5912 3.521423 0.9737 81.883 9.24E+01 2.8907 0.71 2.31 0.10 0.03
13 2008 6 28 1600 40.79 -69.23 56 1 2.46 0.00 32.4391 24.9565 2.094 9.978 3.555748 0.623 81.6946 6.19E+02 2.9107 0.43 1.27 0.03 0.03
14 2008 6 28 1747 40.65 -69.13 71 60     32.7478 25.6644 58.944 6.8589 3.313623 0.2735 84.4816 5.89E-04 2.5299 1.97 4.68 1.37 0.00
14 2008 6 28 1747 40.65 -69.13 71 50     32.7472 25.6629 49.844 6.8655 3.313746 0.2922 84.5714 4.94E-03 2.5362 1.77 4.55 1.31 0.09
14 2008 6 28 1747 40.65 -69.13 71 40 0.97 0.26 32.7468 25.6589 40.035 6.8931 3.315685 0.3302 84.3987 3.89E-02 2.545 2.26 4.69 0.32 0.28
14 2008 6 28 1747 40.65 -69.13 71 30 0.63 0.53 32.745 25.6517 29.193 6.9356 3.318746 0.4093 83.7909 1.61E-01 2.5593 2.32 4.57 0.03 0.17
14 2008 6 28 1747 40.65 -69.13 71 20 6.33 0.01 32.68 25.2998 20.241 9.0149 3.494738 4.1526 60.9777 1.44E+00 3.0288 0.03 1.70 0.03 0.00
14 2008 6 28 1747 40.65 -69.13 71 10 3.42 0.00 32.5655 24.2616 9.593 14.2179 3.951865 1.8097 70.9278 2.93E+01 3.4392 0.27 3.20 0.03 0.03
14 2008 6 28 1747 40.65 -69.13 71 1 2.89 0.01 32.541 23.9847 1.79 15.4243 4.060088 1.5075 70.9072 3.10E+02 3.3097 0.04 0.30 0.03 0.03
15 2008 6 28 1912 40.50 -69.03 77 65     32.8184 25.7011 64.996 7.0015 3.332762 0.0697 87.2382 1.91E-03 2.5425 1.45 4.08 0.52 0.12
15 2008 6 28 1912 40.50 -69.03 77 50     32.8153 25.69 50.941 7.0644 3.337357 0.0991 87.1695 1.00E-12 2.5564 2.23 4.41 0.62 0.32
15 2008 6 28 1912 40.50 -69.03 77 40 1.10 0.01 32.8061 25.6549 40.069 7.2684 3.353861 0.2517 86.7025 1.76E-04 2.5915 0.93 3.43 0.86 0.05
15 2008 6 28 1912 40.50 -69.03 77 30 1.80 1.05 32.7999 25.5063 29.27 8.2755 3.441247 2.3672 70.9425 3.90E-02 2.8079 0.03 2.30 0.59 0.03
15 2008 6 28 1912 40.50 -69.03 77 20 5.85 0.01 32.7885 25.1794 20.004 10.2765 3.617709 4.4075 54.478 1.08E+00 3.2357 0.03 0.98 0.05 0.03
15 2008 6 28 1912 40.50 -69.03 77 10 2.80 0.01 32.6318 23.5904 9.713 17.4554 4.260394 1.4627 73.7373 1.40E+01 3.2586 0.04 0.77 0.03 0.03
15 2008 6 28 1912 40.50 -69.03 77 1 1.86 0.00 32.586 23.3348 2.094 18.3659 4.340531 1.031 76.0823 8.26E+01 3.2144 0.33 0.83 0.26 0.03
16 2008 6 28 2027 40.35 -68.92 89 75     33.6366 26.2337 75.924 7.798 3.47929 0.1084 87.8553 3.07E-05 2.3249 7.90 7.37 0.03 0.32
16 2008 6 28 2027 40.35 -68.92 89 50     32.9948 25.8696 50.459 6.7783 3.328723 0.2772 88.6064 1.00E-12 2.5698 3.35 3.12 0.35 0.26
16 2008 6 28 2027 40.35 -68.92 89 40 2.09 0.00 33.0163 25.7888 40.406 7.495 3.393183 0.2729 88.6251 1.00E-12 2.6247 3.03 2.87 1.46 0.09
16 2008 6 28 2027 40.35 -68.92 89 30 2.49 0.00 32.8521 25.6279 29.895 7.7204 3.397304 0.5762 86.9718 1.00E-12 2.7239 0.93 1.86 0.32 0.01
16 2008 6 28 2027 40.35 -68.92 89 20 2.09 0.00 32.7861 25.3796 19.965 9.0359 3.506803 1.5443 78.2772 1.00E-12 2.9527 0.03 1.41 0.03 0.02
16 2008 6 28 2027 40.35 -68.92 89 10 5.78 0.00 32.6636 24.1473 10.117 15.1125 4.045225 3.6343 63.5778 1.95E-02 3.3357 0.03 3.59 0.30 0.03
16 2008 6 28 2027 40.35 -68.92 89 1 2.36 0.01 32.6664 23.5955 2.705 17.5439 4.272474 1.6334 70.7747 1.07E+00 3.3014 0.03 1.26 0.46 0.03
17 2008 6 28 2152 40.21 -68.82 121 110     34.5316 26.6718 110.497 9.5018 3.721642 -0.0361 88.9901 1.00E-12 2.1377 11.55 9.89 0.00 0.34
17 2008 6 28 2152 40.21 -68.82 121 100     34.5139 26.6564 99.913 9.5098 3.720198 -0.033 88.9695 1.00E-12 2.1537 13.32 9.27 0.00 0.36
17 2008 6 28 2152 40.21 -68.82 121 50     33.1446 25.9701 49.912 6.9094 3.353846 0.2205 88.9739 1.00E-12 2.5037 6.54 6.32 0.00 0.24
17 2008 6 28 2152 40.21 -68.82 121 40 1.97 0.01 33.0924 25.9374 39.964 6.8454 3.343022 0.2062 89.1019 3.07E-05 2.5157 5.16 4.72 0.03 0.18
17 2008 6 28 2152 40.21 -68.82 121 30 2.08 0.01 32.9614 25.8022 29.641 7.0834 3.351474 0.2255 88.6932 1.00E-12 2.559 2.91 4.74 0.29 0.31
17 2008 6 28 2152 40.21 -68.82 121 20 2.40 0.00 32.9175 25.67 19.917 7.7842 3.408586 1.1288 85.9636 1.00E-12 2.7441 0.12 2.17 0.86 0.95
17 2008 6 28 2152 40.21 -68.82 121 10 3.47 0.00 32.9169 24.7581 10.013 13.1096 3.887759 1.6596 80.2145 1.19E-02 3.1872 0.47 1.36 0.01 0.52
17 2008 6 29 2152 40.21 -68.82 121 1 2.65 0.00 32.7225 23.9594 1.872 16.1643 4.149415 2.0009 70.4965 1.41E+00 3.2634 0.04 0.90 0.01 0.79
18 2008 6 29 0122 40.36 -68.24 140 130     34.7273 26.7162 129.772 10.1484 3.802143 -0.0449 89.072 5.39E-03 2.1762 10.96 7.76 0.92 0.62
18 2008 6 29 0122 40.36 -68.24 140 100     34.4724 26.4145 100.676 10.7333 3.830644 0.0206 89.6916 1.00E-12 2.4248 10.96 7.47 0.20 0.95
18 2008 6 29 0122 40.36 -68.24 140 50     34.0157 26.0777 50.624 10.6187 3.772225 0.7046 88.3106 1.66E-03 2.6408 2.99 2.49 0.01 1.06
18 2008 6 29 0122 40.36 -68.24 140 40 1.10 0.17 34.2882 25.9024 40.334 12.698 3.99484 0.9824 86.7952 2.52E-04 2.7858 1.71 1.55 0.01 0.77
18 2008 6 29 0122 40.36 -68.24 140 30 0.20 0.78 33.9205 25.7868 30.263 11.8119 3.872864 1.297 85.9494 1.00E-12 2.874 2.24 2.91 0.02 0.74
18 2008 6 29 0122 40.36 -68.24 140 20 0.73 0.10 33.4924 25.0984 20.494 13.6328 3.998078 0.689 84.9575 1.00E-12 3.1806 0.03 1.86 0.68 0.36
18 2008 6 29 0122 40.36 -68.24 140 10 1.03 0.00 33.8581 23.8077 10.237 20.318 4.683992 0.3757 84.5032 4.11E-02 2.8968 0.12 2.21 0.01 0.71
18 2008 6 29 0122 40.36 -68.24 140 1 0.68 0.00 33.8862 23.817 1.857 20.3622 4.691487 0.4105 84.6317 1.15E+00 2.8822 0.04 0.56 0.01 0.52
19 2008 6 29 0305 40.51 -68.35 96 85     33.9984 26.2904 84.847 9.2805 3.648532 0.0586 88.5063 1.00E-12 2.4201 6.08 6.70 0.41 1.14
19 2008 6 29 0305 40.51 -68.35 96 50     32.9553 25.7926 51.612 7.121 3.35518 0.9444 87.9338 1.00E-12 2.6005 3.05 2.77 0.39 0.77
19 2008 6 29 0305 40.51 -68.35 96 40 1.37 0.92 32.8933 25.7331 40.786 7.1984 3.35579 0.4167 88.2277 1.00E-12 2.6549 0.88 1.34 0.01 0.86
19 2008 6 29 0305 40.51 -68.35 96 30 3.28 0.05 32.8502 25.5772 30.417 8.0617 3.427189 1.1587 83.2331 1.00E-12 2.8518 2.26 3.14 0.01 1.32
19 2008 6 29 0305 40.51 -68.35 96 20 2.40 0.01 32.7248 24.3752 20.727 14.2643 3.973966 1.0011 76.6063 1.38E-04 3.1895 0.70 3.13 0.74 0.53
19 2008 6 29 0305 40.51 -68.35 96 10 2.68 0.00                   0.22 1.54 0.75 0.61
19 2008 6 29 0305 40.51 -68.35 96 1 2.27 0.01                   0.04 1.72 0.01 0.63
20 2008 6 29 0551 40.66 -68.44 70 60     32.9466 25.7551 60.029 7.3452 3.374418 0.2237 86.6573 1.08E-02 2.5858 1.39 3.13 0.01 0.50
20 2008 6 29 0551 40.66 -68.44 70 50     32.9391 25.7368 50.163 7.4337 3.381071 0.2748 86.673 4.66E-02 2.6196 1.42 2.84 0.61 0.70
20 2008 6 29 0551 40.66 -68.44 70 40 0.27 1.06 32.9117 25.6862 40.989 7.6405 3.396314 0.3052 86.4547 1.41E-01 2.677 0.99 2.36 0.20 0.52
20 2008 6 29 0551 40.66 -68.44 70 30 1.70 0.29 32.8856 25.5781 29.96 8.2444 3.446633 0.3345 85.9166 5.50E-01 2.7869 0.03 2.25 0.21 0.51
20 2008 6 29 0551 40.66 -68.44 70 20 1.18 0.33 32.8886 25.5515 19.932 8.4374 3.463548 0.5283 84.4281 2.08E+00 2.8463 0.32 1.78 0.34 0.90
20 2008 6 29 0551 40.66 -68.44 70 10 3.38 0.01 32.8643 25.3477 9.883 9.6178 3.565768 1.9972 74.3859 1.18E+01 3.0444 0.03 1.14 0.78 0.58
20 2008 6 29 0551 40.66 -68.44 70 1 4.07 0.00 32.64 24.3117 2.855 14.2519 3.962811 1.1868 77.4192 5.29E+01 3.0671 0.03 0.14 0.03 0.51
21 2008 6 29 0733 40.80 -68.55 58 40 1.45 0.33 32.8546 25.076 40.483 11.1692 3.705609 0.7588 83.0962 5.54E-01 2.8025 0.04 0.62 0.42 0.71
21 2008 6 29 0733 40.80 -68.55 58 30 2.68 0.00 32.8546 25.0764 30.209 11.1659 3.704871 0.8298 83.2331 2.37E+00 2.8001 0.04 0.58 0.01 0.78
21 2008 6 29 0733 40.80 -68.55 58 20 2.89 0.01 32.8543 25.0764 20.249 11.1633 3.704178 0.8186 83.107 8.87E+00 2.806 0.04 0.61 0.01 0.48
21 2008 6 29 0733 40.80 -68.55 58 10 1.45 0.33 32.8542 25.0761 9.731 11.1631 3.703702 0.7581 83.2238 3.27E+01 2.8106 0.04 0.56 0.01 0.66
21 2008 6 29 0733 40.80 -68.55 58 1 1.87 0.00 32.8542 25.0753 3.199 11.1664 3.703709 0.7575 83.1438 1.47E+02 2.8136 0.04 0.53 0.05 0.34
22 2008 6 29 0830 40.95 -68.66 59 40 2.64 0.00 32.7994 24.886 40.242 11.9746 3.772982 1.2316 79.5041 2.23E-01 2.7139 0.03 0.82 0.69 0.21
22 2008 6 29 0830 40.95 -68.66 59 30 2.68 0.00 32.7972 24.8872 30.125 11.958 3.770809 1.2677 79.3182 1.50E+00 2.7107 0.03 2.82 0.59 0.36
22 2008 6 29 0830 40.95 -68.66 59 20 2.63 0.00 32.8 24.8851 20.29 11.9794 3.772631 1.3437 79.3216 1.21E+01 2.7178 0.00 0.86 0.61 0.26
22 2008 6 29 0830 40.95 -68.66 59 10 2.83 0.00 32.8001 24.8826 10.415 11.9921 3.773362 1.2883 79.7372 1.09E+02 2.7292 0.03 3.67 0.15 0.04
22 2008 6 29 0830 40.95 -68.66 59 1 2.77 0.01 32.7978 24.8734 2.19 12.0308 3.776294 0.775 79.6822 1.16E+03 2.7303 0.03 0.83 0.01 0.15
23 2008 6 29 1225 41.10 -68.76 69 50     32.6874 25.1197 50.075 10.1665 3.599132 0.6541 84.2093 6.78E-01 2.7001 1.01 1.48 0.41 0.21
23 2008 6 29 1225 41.10 -68.76 69 40 1.74 0.00